createdAt,value
2017-05-23T04:27:14.055Z,955.49
2017-05-23T04:28:12.930Z,955.49
2017-05-23T04:29:12.931Z,955.48
2017-05-23T04:30:13.948Z,955.51
2017-05-23T04:31:13.703Z,955.47
2017-05-23T04:32:12.719Z,955.47
2017-05-23T04:33:13.962Z,955.50
2017-05-23T04:34:11.310Z,955.50
2017-05-23T04:35:14.704Z,955.54
2017-05-23T04:36:10.681Z,955.50
2017-05-23T04:37:14.038Z,955.57
2017-05-23T04:38:13.135Z,955.54
2017-05-23T04:39:12.879Z,955.57
2017-05-23T04:40:14.115Z,955.58
2017-05-23T04:41:13.144Z,955.58
2017-05-23T04:42:14.617Z,955.56
2017-05-23T04:43:13.021Z,955.59
2017-05-23T04:44:11.556Z,955.60
2017-05-23T04:45:13.294Z,955.64
2017-05-23T04:46:13.632Z,955.62
2017-05-23T04:47:11.230Z,955.63
2017-05-23T04:48:13.153Z,955.64
2017-05-23T04:49:13.517Z,955.63
2017-05-23T04:50:13.945Z,955.64
2017-05-23T04:51:14.766Z,955.69
2017-05-23T04:52:13.685Z,955.66
2017-05-23T04:53:14.266Z,955.75
2017-05-23T04:54:13.845Z,955.75
2017-05-23T04:55:13.602Z,955.71
2017-05-23T04:56:13.891Z,955.72
2017-05-23T04:57:13.564Z,955.74
2017-05-23T04:58:14.127Z,955.71
2017-05-23T04:59:13.932Z,955.73
2017-05-23T05:00:13.961Z,955.74
2017-05-23T05:01:13.224Z,955.75
2017-05-23T05:02:14.474Z,955.78
2017-05-23T05:03:13.901Z,955.77
2017-05-23T05:04:15.160Z,955.78
2017-05-23T05:05:11.581Z,955.77
2017-05-23T05:06:14.150Z,955.86
2017-05-23T05:07:14.053Z,955.84
2017-05-23T05:08:14.267Z,955.82
2017-05-23T05:09:13.927Z,955.84
2017-05-23T05:10:10.036Z,955.86
2017-05-23T05:11:14.002Z,955.89
2017-05-23T05:12:14.194Z,955.90
2017-05-23T05:13:14.845Z,955.87
2017-05-23T05:14:13.280Z,955.89
2017-05-23T05:15:13.759Z,955.83
2017-05-23T05:16:13.237Z,955.83
2017-05-23T05:17:14.366Z,955.82
2017-05-23T05:18:15.067Z,955.87
2017-05-23T05:19:13.549Z,955.87
2017-05-23T05:20:14.332Z,955.86
2017-05-23T05:21:14.612Z,955.92
2017-05-23T05:22:12.015Z,955.91
2017-05-23T05:23:11.024Z,955.97
2017-05-23T05:24:14.130Z,955.98
2017-05-23T05:25:13.748Z,956.03
2017-05-23T05:26:13.128Z,955.99
2017-05-23T05:27:13.705Z,956.01
2017-05-23T05:28:13.257Z,955.98
2017-05-23T05:29:14.727Z,955.98
2017-05-23T05:30:13.250Z,956.01
2017-05-23T05:31:13.577Z,955.97
2017-05-23T05:32:15.199Z,955.97
2017-05-23T05:33:14.005Z,956.00
2017-05-23T05:34:13.449Z,955.99
2017-05-23T05:35:13.783Z,956.00
2017-05-23T05:36:13.999Z,956.04
2017-05-23T05:37:15.011Z,956.02
2017-05-23T05:38:11.698Z,956.03
2017-05-23T05:39:16.175Z,956.06
2017-05-23T05:40:13.950Z,955.99
2017-05-23T05:41:11.297Z,956.00
2017-05-23T05:42:14.078Z,956.03
2017-05-23T05:43:10.936Z,956.08
2017-05-23T05:44:11.075Z,956.07
2017-05-23T05:45:11.968Z,956.11
2017-05-23T05:46:13.752Z,956.08
2017-05-23T05:47:13.499Z,956.10
2017-05-23T05:48:13.721Z,956.10
2017-05-23T05:49:13.329Z,956.06
2017-05-23T05:50:11.905Z,956.08
2017-05-23T05:51:11.420Z,956.10
2017-05-23T05:52:14.344Z,956.10
2017-05-23T05:53:13.770Z,956.10
2017-05-23T05:54:13.471Z,956.07
2017-05-23T05:55:14.972Z,956.09
2017-05-23T05:56:14.603Z,956.16
2017-05-23T05:57:14.611Z,956.15
2017-05-23T05:58:14.903Z,956.17
2017-05-23T05:59:13.663Z,956.20
2017-05-23T06:00:10.486Z,956.21
2017-05-23T06:01:13.929Z,956.19
2017-05-23T06:02:13.215Z,956.22
2017-05-23T06:03:13.958Z,956.22
2017-05-23T06:04:13.976Z,956.21
2017-05-23T06:05:14.414Z,956.21
2017-05-23T06:06:14.778Z,956.19
2017-05-23T06:07:11.468Z,956.22
2017-05-23T06:08:13.602Z,956.20
2017-05-23T06:09:14.285Z,956.25
2017-05-23T06:10:13.521Z,956.23
2017-05-23T06:11:14.842Z,956.22
2017-05-23T06:12:13.087Z,956.24
2017-05-23T06:13:13.862Z,956.21
2017-05-23T06:14:11.380Z,956.22
2017-05-23T06:15:14.710Z,956.27
2017-05-23T06:16:13.824Z,956.27
2017-05-23T06:17:13.974Z,956.30
2017-05-23T06:18:14.133Z,956.24
2017-05-23T06:19:13.663Z,956.26
2017-05-23T06:20:14.333Z,956.27
2017-05-23T06:21:13.963Z,956.26
2017-05-23T06:22:15.936Z,956.28
2017-05-23T06:23:14.199Z,956.28
2017-05-23T06:24:13.815Z,956.28
2017-05-23T06:25:13.616Z,956.27
2017-05-23T06:26:13.938Z,956.28
2017-05-23T06:27:13.890Z,956.28
2017-05-23T06:28:13.650Z,956.27
2017-05-23T06:29:11.113Z,956.32
2017-05-23T06:30:15.253Z,956.32
2017-05-23T06:31:11.804Z,956.33
2017-05-23T06:32:10.281Z,956.31
2017-05-23T06:33:14.271Z,956.33
2017-05-23T06:34:13.879Z,956.35
2017-05-23T06:35:13.657Z,956.41
2017-05-23T06:36:15.545Z,956.45
2017-05-23T06:37:13.912Z,956.46
2017-05-23T06:38:15.557Z,956.43
2017-05-23T06:39:14.732Z,956.44
2017-05-23T06:40:13.044Z,956.45
2017-05-23T06:41:13.513Z,956.46
2017-05-23T06:42:14.498Z,956.49
2017-05-23T06:43:14.213Z,956.48
2017-05-23T06:44:13.903Z,956.46
2017-05-23T06:45:13.822Z,956.48
2017-05-23T06:46:13.914Z,956.48
2017-05-23T06:47:13.679Z,956.45
2017-05-23T06:48:14.239Z,956.47
2017-05-23T06:49:13.584Z,956.51
2017-05-23T06:50:14.646Z,956.44
2017-05-23T06:51:15.062Z,956.48
2017-05-23T06:52:10.838Z,956.50
2017-05-23T06:53:13.677Z,956.51
2017-05-23T06:54:15.000Z,956.53
2017-05-23T06:55:13.316Z,956.50
2017-05-23T06:56:13.950Z,956.54
2017-05-23T06:57:14.589Z,956.53
2017-05-23T06:58:14.170Z,956.48
2017-05-23T06:59:13.333Z,956.53
2017-05-23T07:00:13.873Z,956.54
2017-05-23T07:01:13.269Z,956.55
2017-05-23T07:02:13.991Z,956.52
2017-05-23T07:03:13.153Z,956.54
2017-05-23T07:04:13.852Z,956.55
2017-05-23T07:05:13.256Z,956.55
2017-05-23T07:06:14.860Z,956.56
2017-05-23T07:07:13.749Z,956.56
2017-05-23T07:08:14.341Z,956.57
2017-05-23T07:09:13.672Z,956.58
2017-05-23T07:10:15.126Z,956.63
2017-05-23T07:11:14.334Z,956.63
2017-05-23T07:12:15.152Z,956.60
2017-05-23T07:13:14.574Z,956.65
2017-05-23T07:14:15.620Z,956.62
2017-05-23T07:15:14.277Z,956.62
2017-05-23T07:16:13.987Z,956.57
2017-05-23T07:17:13.730Z,956.63
2017-05-23T07:18:13.446Z,956.62
2017-05-23T07:19:14.013Z,956.65
2017-05-23T07:20:14.602Z,956.65
2017-05-23T07:21:14.046Z,956.70
2017-05-23T07:22:13.575Z,956.78
2017-05-23T07:23:14.373Z,956.74
2017-05-23T07:24:11.691Z,956.68
2017-05-23T07:25:13.331Z,956.67
2017-05-23T07:26:13.554Z,956.74
2017-05-23T07:27:13.973Z,956.75
2017-05-23T07:28:13.684Z,956.73
2017-05-23T07:29:13.299Z,956.72
2017-05-23T07:30:14.971Z,956.72
2017-05-23T07:31:13.575Z,956.72
2017-05-23T07:32:14.947Z,956.71
2017-05-23T07:33:15.517Z,956.72
2017-05-23T07:34:13.901Z,956.78
2017-05-23T07:35:14.989Z,956.76
2017-05-23T07:36:13.703Z,956.79
2017-05-23T07:37:10.769Z,956.78
2017-05-23T07:38:14.040Z,956.75
2017-05-23T07:39:13.883Z,956.78
2017-05-23T07:40:13.246Z,956.80
2017-05-23T07:41:13.681Z,956.76
2017-05-23T07:42:13.608Z,956.76
2017-05-23T07:43:14.270Z,956.74
2017-05-23T07:44:14.109Z,956.73
2017-05-23T07:45:14.836Z,956.71
2017-05-23T07:46:13.575Z,956.78
2017-05-23T07:47:14.494Z,956.76
2017-05-23T07:48:13.819Z,956.76
2017-05-23T07:49:13.203Z,956.77
2017-05-23T07:50:14.075Z,956.76
2017-05-23T07:51:11.483Z,956.73
2017-05-23T07:52:14.051Z,956.74
2017-05-23T07:53:13.768Z,956.68
2017-05-23T07:54:13.248Z,956.69
2017-05-23T07:55:14.872Z,956.67
2017-05-23T07:56:13.002Z,956.64
2017-05-23T07:57:13.798Z,956.63
2017-05-23T07:58:15.123Z,956.67
2017-05-23T07:59:14.582Z,956.63
2017-05-23T08:00:14.715Z,956.65
2017-05-23T08:01:14.892Z,956.66
2017-05-23T08:02:14.402Z,956.61
2017-05-23T08:03:13.887Z,956.64
2017-05-23T08:04:15.226Z,956.67
2017-05-23T08:05:13.984Z,956.62
2017-05-23T08:06:13.950Z,956.63
2017-05-23T08:07:13.530Z,956.61
2017-05-23T08:08:14.056Z,956.64
2017-05-23T08:09:11.480Z,956.65
2017-05-23T08:10:13.512Z,956.67
2017-05-23T08:11:14.118Z,956.65
2017-05-23T08:12:13.511Z,956.67
2017-05-23T08:13:14.951Z,956.70
2017-05-23T08:14:13.251Z,956.66
2017-05-23T08:15:14.924Z,956.71
2017-05-23T08:16:13.572Z,956.71
2017-05-23T08:17:14.579Z,956.72
2017-05-23T08:18:14.005Z,956.75
2017-05-23T08:19:13.987Z,956.76
2017-05-23T08:20:13.406Z,956.76
2017-05-23T08:21:13.948Z,956.78
2017-05-23T08:22:13.412Z,956.77
2017-05-23T08:23:13.901Z,956.76
2017-05-23T08:24:13.663Z,956.72
2017-05-23T08:25:12.177Z,956.75
2017-05-23T08:26:13.694Z,956.71
2017-05-23T08:27:13.223Z,956.76
2017-05-23T08:28:13.896Z,956.80
2017-05-23T08:29:14.123Z,956.78
2017-05-23T08:30:14.302Z,956.80
2017-05-23T08:31:14.160Z,956.78
2017-05-23T08:32:15.500Z,956.77
2017-05-23T08:33:14.381Z,956.81
2017-05-23T08:34:14.841Z,956.82
2017-05-23T08:35:13.508Z,956.81
2017-05-23T08:36:14.482Z,956.82
2017-05-23T08:37:14.245Z,956.77
2017-05-23T08:38:13.922Z,956.79
2017-05-23T08:39:13.656Z,956.79
2017-05-23T08:40:14.996Z,956.77
2017-05-23T08:41:13.713Z,956.74
2017-05-23T08:42:13.673Z,956.78
2017-05-23T08:43:13.336Z,956.77
2017-05-23T08:44:14.519Z,956.77
2017-05-23T08:45:14.124Z,956.79
2017-05-23T08:46:14.757Z,956.78
2017-05-23T08:47:14.124Z,956.79
2017-05-23T08:48:14.563Z,956.83
2017-05-23T08:49:13.925Z,956.81
2017-05-23T08:50:14.349Z,956.85
2017-05-23T08:51:13.768Z,956.83
2017-05-23T08:52:13.523Z,956.82
2017-05-23T08:53:13.886Z,956.83
2017-05-23T08:54:13.768Z,956.81
2017-05-23T08:55:13.463Z,956.81
2017-05-23T08:56:14.241Z,956.77
2017-05-23T08:57:13.790Z,956.79
2017-05-23T08:58:14.840Z,956.78
2017-05-23T08:59:13.407Z,956.85
2017-05-23T09:00:14.492Z,956.81
2017-05-23T09:01:14.271Z,956.82
2017-05-23T09:02:14.154Z,956.85
2017-05-23T09:03:13.356Z,956.81
2017-05-23T09:04:14.171Z,956.81
2017-05-23T09:05:13.733Z,956.81
2017-05-23T09:06:14.046Z,956.83
2017-05-23T09:07:13.949Z,956.82
2017-05-23T09:08:13.445Z,956.80
2017-05-23T09:09:14.373Z,956.79
2017-05-23T09:10:14.098Z,956.79
2017-05-23T09:11:13.807Z,956.82
2017-05-23T09:12:13.666Z,956.84
2017-05-23T09:13:12.029Z,956.86
2017-05-23T09:14:13.863Z,956.82
2017-05-23T09:15:13.210Z,956.80
2017-05-23T09:16:11.272Z,956.83
2017-05-23T09:17:14.077Z,956.83
2017-05-23T09:18:11.370Z,956.82
2017-05-23T09:19:12.983Z,956.85
2017-05-23T09:20:11.425Z,956.87
2017-05-23T09:21:13.948Z,956.86
2017-05-23T09:22:13.490Z,956.82
2017-05-23T09:23:11.584Z,956.83
2017-05-23T09:24:14.152Z,956.81
2017-05-23T09:25:14.173Z,956.81
2017-05-23T09:26:14.084Z,956.78
2017-05-23T09:27:14.606Z,956.86
2017-05-23T09:28:14.318Z,956.84
2017-05-23T09:29:16.225Z,956.83
2017-05-23T09:30:14.254Z,956.85
2017-05-23T09:31:12.314Z,956.82
2017-05-23T09:32:14.364Z,956.83
2017-05-23T09:33:14.478Z,956.85
2017-05-23T09:34:14.749Z,956.84
2017-05-23T09:35:10.474Z,956.82
2017-05-23T09:36:13.239Z,956.82
2017-05-23T09:37:13.909Z,956.83
2017-05-23T09:38:11.066Z,956.88
2017-05-23T09:39:13.804Z,956.83
2017-05-23T09:40:13.554Z,956.85
2017-05-23T09:41:14.419Z,956.78
2017-05-23T09:42:13.954Z,956.76
2017-05-23T09:43:11.280Z,956.79
2017-05-23T09:44:14.783Z,956.76
2017-05-23T09:45:13.378Z,956.78
2017-05-23T09:46:14.273Z,956.75
2017-05-23T09:47:13.610Z,956.73
2017-05-23T09:48:14.120Z,956.74
2017-05-23T09:49:13.891Z,956.76
2017-05-23T09:50:13.568Z,956.74
2017-05-23T09:51:14.307Z,956.70
2017-05-23T09:52:11.617Z,956.71
2017-05-23T09:53:13.797Z,956.69
2017-05-23T09:54:10.674Z,956.69
2017-05-23T09:55:13.869Z,956.67
2017-05-23T09:56:13.524Z,956.67
2017-05-23T09:57:14.288Z,956.70
2017-05-23T09:58:13.583Z,956.70
2017-05-23T09:59:14.426Z,956.73
2017-05-23T10:00:14.258Z,956.74
2017-05-23T10:01:13.708Z,956.75
2017-05-23T10:02:12.905Z,956.70
2017-05-23T10:03:13.533Z,956.67
2017-05-23T10:04:13.934Z,956.70
2017-05-23T10:05:11.433Z,956.70
2017-05-23T10:06:14.137Z,956.68
2017-05-23T10:07:13.715Z,956.72
2017-05-23T10:08:13.239Z,956.71
2017-05-23T10:09:14.480Z,956.68
2017-05-23T10:10:15.645Z,956.68
2017-05-23T10:11:13.408Z,956.66
2017-05-23T10:12:14.259Z,956.66
2017-05-23T10:13:14.265Z,956.73
2017-05-23T10:14:13.912Z,956.74
2017-05-23T10:15:15.122Z,956.69
2017-05-23T10:16:13.918Z,956.71
2017-05-23T10:17:14.654Z,956.63
2017-05-23T10:18:13.973Z,956.60
2017-05-23T10:19:13.539Z,956.62
2017-05-23T10:20:13.847Z,956.61
2017-05-23T10:21:14.801Z,956.59
2017-05-23T10:22:13.074Z,956.62
2017-05-23T10:23:13.986Z,956.66
2017-05-23T10:24:13.793Z,956.59
2017-05-23T10:25:13.571Z,956.63
2017-05-23T10:26:15.669Z,956.58
2017-05-23T10:27:13.228Z,956.57
2017-05-23T10:28:12.561Z,956.57
2017-05-23T10:29:14.268Z,956.61
2017-05-23T10:30:13.775Z,956.57
2017-05-23T10:31:13.222Z,956.51
2017-05-23T10:32:13.993Z,956.56
2017-05-23T10:33:11.232Z,956.58
2017-05-23T10:34:14.188Z,956.56
2017-05-23T10:35:13.905Z,956.52
2017-05-23T10:36:15.952Z,956.52
2017-05-23T10:37:13.908Z,956.55
2017-05-23T10:38:13.871Z,956.57
2017-05-23T10:39:14.184Z,956.55
2017-05-23T10:40:15.319Z,956.55
2017-05-23T10:41:15.327Z,956.58
2017-05-23T10:42:14.001Z,956.51
2017-05-23T10:43:11.171Z,956.51
2017-05-23T10:44:14.384Z,956.45
2017-05-23T10:45:10.440Z,956.45
2017-05-23T10:46:13.671Z,956.44
2017-05-23T10:47:13.840Z,956.47
2017-05-23T10:48:13.931Z,956.48
2017-05-23T10:49:13.326Z,956.39
2017-05-23T10:50:14.081Z,956.39
2017-05-23T10:51:13.557Z,956.42
2017-05-23T10:52:14.559Z,956.42
2017-05-23T10:53:13.937Z,956.44
2017-05-23T10:54:13.511Z,956.44
2017-05-23T10:55:13.830Z,956.44
2017-05-23T10:56:14.223Z,956.42
2017-05-23T10:57:14.314Z,956.47
2017-05-23T10:58:13.757Z,956.47
2017-05-23T10:59:14.040Z,956.44
2017-05-23T11:00:13.600Z,956.45
2017-05-23T11:01:15.032Z,956.37
2017-05-23T11:02:13.741Z,956.32
2017-05-23T11:03:13.286Z,956.35
2017-05-23T11:04:14.465Z,956.34
2017-05-23T11:05:14.856Z,956.33
2017-05-23T11:06:14.482Z,956.37
2017-05-23T11:07:14.249Z,956.32
2017-05-23T11:08:14.081Z,956.31
2017-05-23T11:09:13.261Z,956.31
2017-05-23T11:10:14.874Z,956.33
2017-05-23T11:11:13.852Z,956.30
2017-05-23T11:12:11.353Z,956.27
2017-05-23T11:13:14.607Z,956.22
2017-05-23T11:14:15.264Z,956.24
2017-05-23T11:15:13.689Z,956.28
2017-05-23T11:16:12.158Z,956.29
2017-05-23T11:17:13.986Z,956.27
2017-05-23T11:18:14.072Z,956.29
2017-05-23T11:19:14.412Z,956.27
2017-05-23T11:20:14.458Z,956.25
2017-05-23T11:21:15.432Z,956.27
2017-05-23T11:22:14.123Z,956.28
2017-05-23T11:23:14.709Z,956.29
2017-05-23T11:24:13.289Z,956.26
2017-05-23T11:25:14.237Z,956.30
2017-05-23T11:26:14.028Z,956.24
2017-05-23T11:27:11.450Z,956.29
2017-05-23T11:28:13.355Z,956.28
2017-05-23T11:29:13.807Z,956.25
2017-05-23T11:30:13.697Z,956.26
2017-05-23T11:31:13.471Z,956.26
2017-05-23T11:32:13.849Z,956.34
2017-05-23T11:33:13.245Z,956.29
2017-05-23T11:34:14.481Z,956.29
2017-05-23T11:35:14.782Z,956.27
2017-05-23T11:36:13.778Z,956.24
2017-05-23T11:37:13.568Z,956.22
2017-05-23T11:38:15.002Z,956.24
2017-05-23T11:39:13.294Z,956.21
2017-05-23T11:40:14.192Z,956.22
2017-05-23T11:41:14.321Z,956.25
2017-05-23T11:42:14.313Z,956.21
2017-05-23T11:43:15.574Z,956.25
2017-05-23T11:44:14.419Z,956.28
2017-05-23T11:45:15.145Z,956.29
2017-05-23T11:46:13.931Z,956.23
2017-05-23T11:47:14.137Z,956.25
2017-05-23T11:48:13.794Z,956.17
2017-05-23T11:49:13.728Z,956.26
2017-05-23T11:50:13.926Z,956.15
2017-05-23T11:51:13.543Z,956.17
2017-05-23T11:52:14.378Z,956.12
2017-05-23T11:53:13.854Z,956.17
2017-05-23T11:54:13.816Z,956.13
2017-05-23T11:55:13.864Z,956.11
2017-05-23T11:56:13.591Z,956.12
2017-05-23T11:57:12.113Z,956.12
2017-05-23T11:58:14.447Z,956.15
2017-05-23T11:59:14.706Z,956.18
2017-05-23T12:00:12.983Z,956.13
2017-05-23T12:01:13.991Z,956.10
2017-05-23T12:02:13.301Z,956.13
2017-05-23T12:03:13.877Z,956.13
2017-05-23T12:04:13.278Z,956.17
2017-05-23T12:05:11.974Z,956.13
2017-05-23T12:06:14.611Z,956.13
2017-05-23T12:07:15.501Z,956.13
2017-05-23T12:08:13.924Z,956.04
2017-05-23T12:09:13.525Z,956.04
2017-05-23T12:10:13.366Z,956.01
2017-05-23T12:11:10.215Z,956.01
2017-05-23T12:12:14.101Z,956.05
2017-05-23T12:13:13.516Z,956.04
2017-05-23T12:14:14.057Z,956.02
2017-05-23T12:15:13.787Z,956.04
2017-05-23T12:16:10.331Z,956.01
2017-05-23T12:17:13.532Z,956.06
2017-05-23T12:18:15.256Z,956.02
2017-05-23T12:19:13.829Z,955.99
2017-05-23T12:20:15.244Z,955.91
2017-05-23T12:21:11.773Z,955.99
2017-05-23T12:22:15.790Z,955.96
2017-05-23T12:23:14.113Z,955.94
2017-05-23T12:24:13.997Z,955.90
2017-05-23T12:25:13.686Z,955.94
2017-05-23T12:26:15.265Z,955.89
2017-05-23T12:27:13.763Z,955.94
2017-05-23T12:28:13.734Z,955.92
2017-05-23T12:29:13.576Z,955.92
2017-05-23T12:30:14.124Z,955.97
2017-05-23T12:31:14.325Z,955.95
2017-05-23T12:32:13.746Z,955.95
2017-05-23T12:33:13.265Z,955.94
2017-05-23T12:34:13.896Z,955.93
2017-05-23T12:35:13.462Z,955.93
2017-05-23T12:36:14.595Z,955.86
2017-05-23T12:37:13.998Z,955.81
2017-05-23T12:38:16.025Z,955.84
2017-05-23T12:39:14.012Z,955.87
2017-05-23T12:40:13.956Z,955.90
2017-05-23T12:41:13.252Z,955.90
2017-05-23T12:42:13.873Z,955.91
2017-05-23T12:43:13.369Z,955.89
2017-05-23T12:44:13.973Z,955.88
2017-05-23T12:45:13.542Z,955.89
2017-05-23T12:46:14.772Z,955.88
2017-05-23T12:47:10.380Z,955.85
2017-05-23T12:48:14.272Z,955.86
2017-05-23T12:49:14.137Z,955.90
2017-05-23T12:50:13.616Z,955.93
2017-05-23T12:51:14.034Z,955.92
2017-05-23T12:52:13.661Z,955.92
2017-05-23T12:53:13.341Z,955.91
2017-05-23T12:54:10.968Z,955.93
2017-05-23T12:55:13.816Z,955.93
2017-05-23T12:56:13.565Z,955.90
2017-05-23T12:57:13.981Z,955.93
2017-05-23T12:58:13.329Z,955.86
2017-05-23T12:59:14.506Z,955.87
2017-05-23T13:00:15.717Z,955.87
2017-05-23T13:01:12.915Z,955.86
2017-05-23T13:02:13.733Z,955.86
2017-05-23T13:03:13.156Z,955.82
2017-05-23T13:04:13.827Z,955.91
2017-05-23T13:05:13.424Z,955.88
2017-05-23T13:06:11.804Z,955.90
2017-05-23T13:07:14.127Z,955.89
2017-05-23T13:08:13.468Z,955.85
2017-05-23T13:09:13.691Z,955.82
2017-05-23T13:10:14.918Z,955.88
2017-05-23T13:11:11.138Z,955.84
2017-05-23T13:12:14.044Z,955.76
2017-05-23T13:13:13.867Z,955.79
2017-05-23T13:14:13.312Z,955.80
2017-05-23T13:15:15.415Z,955.87
2017-05-23T13:16:13.839Z,955.88
2017-05-23T13:17:11.490Z,955.90
2017-05-23T13:18:14.508Z,955.86
2017-05-23T13:19:14.505Z,955.89
2017-05-23T13:20:14.430Z,955.91
2017-05-23T13:21:14.485Z,955.91
2017-05-23T13:22:14.915Z,955.86
2017-05-23T13:23:13.552Z,955.84
2017-05-23T13:24:11.700Z,955.87
2017-05-23T13:25:13.966Z,955.88
2017-05-23T13:26:13.738Z,955.86
2017-05-23T13:27:11.099Z,955.88
2017-05-23T13:28:13.906Z,955.89
2017-05-23T13:29:13.797Z,955.86
2017-05-23T13:30:13.315Z,955.87
2017-05-23T13:31:13.852Z,955.85
2017-05-23T13:32:13.190Z,955.79
2017-05-23T13:33:13.729Z,955.82
2017-05-23T13:34:13.113Z,955.84
2017-05-23T13:35:13.885Z,955.80
2017-05-23T13:36:13.689Z,955.78
2017-05-23T13:37:13.813Z,955.83
2017-05-23T13:38:13.512Z,955.77
2017-05-23T13:39:14.373Z,955.73
2017-05-23T13:40:13.970Z,955.82
2017-05-23T13:41:14.017Z,955.79
2017-05-23T13:42:14.229Z,955.78
2017-05-23T13:43:14.370Z,955.76
2017-05-23T13:44:14.658Z,955.73
2017-05-23T13:45:11.951Z,955.72
2017-05-23T13:46:13.680Z,955.81
2017-05-23T13:47:13.193Z,955.74
2017-05-23T13:48:13.922Z,955.76
2017-05-23T13:49:13.341Z,955.78
2017-05-23T13:50:14.576Z,955.79
2017-05-23T13:51:14.111Z,955.74
2017-05-23T13:52:13.865Z,955.71
2017-05-23T13:53:15.084Z,955.73
2017-05-23T13:54:11.214Z,955.78
2017-05-23T13:55:14.107Z,955.75
2017-05-23T13:56:11.381Z,955.78
2017-05-23T13:57:14.596Z,955.77
2017-05-23T13:58:11.665Z,955.73
2017-05-23T13:59:13.795Z,955.77
2017-05-23T14:00:13.651Z,955.74
2017-05-23T14:01:11.960Z,955.77
2017-05-23T14:02:14.133Z,955.76
2017-05-23T14:03:14.137Z,955.73
2017-05-23T14:04:13.689Z,955.72
2017-05-23T14:05:12.098Z,955.65
2017-05-23T14:06:13.838Z,955.63
2017-05-23T14:07:14.034Z,955.68
2017-05-23T14:08:13.870Z,955.70
2017-05-23T14:09:14.083Z,955.64
2017-05-23T14:10:14.561Z,955.61
2017-05-23T14:11:14.518Z,955.67
2017-05-23T14:12:15.479Z,955.66
